sensor_id;sensor_type;location;lat;lon;timestamp;P1;durP1;ratioP1;P2;durP2;ratioP2
6392;SDS011;3229;42.674;23.282;2023-02-15T00:01:16;23.77;;;16.00;;
6392;SDS011;3229;42.674;23.282;2023-02-15T00:03:44;20.57;;;16.00;;
6392;SDS011;3229;42.674;23.282;2023-02-15T00:06:11;22.47;;;16.10;;
6392;SDS011;3229;42.674;23.282;2023-02-15T00:08:38;20.63;;;15.97;;
6392;SDS011;3229;42.674;23.282;2023-02-15T00:11:05;20.87;;;16.63;;
6392;SDS011;3229;42.674;23.282;2023-02-15T00:13:32;24.10;;;16.10;;
6392;SDS011;3229;42.674;23.282;2023-02-15T00:16:01;22.47;;;16.23;;
6392;SDS011;3229;42.674;23.282;2023-02-15T00:18:29;20.00;;;16.07;;
6392;SDS011;3229;42.674;23.282;2023-02-15T00:20:57;24.70;;;16.87;;
6392;SDS011;3229;42.674;23.282;2023-02-15T00:23:25;19.83;;;15.60;;
6392;SDS011;3229;42.674;23.282;2023-02-15T00:25:52;23.63;;;16.10;;
6392;SDS011;3229;42.674;23.282;2023-02-15T00:28:29;22.80;;;17.13;;
6392;SDS011;3229;42.674;23.282;2023-02-15T00:31:01;23.43;;;16.00;;
6392;SDS011;3229;42.674;23.282;2023-02-15T00:33:29;20.67;;;15.87;;
6392;SDS011;3229;42.674;23.282;2023-02-15T00:35:57;20.27;;;16.00;;
6392;SDS011;3229;42.674;23.282;2023-02-15T00:38:25;21.70;;;16.67;;
6392;SDS011;3229;42.674;23.282;2023-02-15T00:40:53;20.47;;;15.83;;
6392;SDS011;3229;42.674;23.282;2023-02-15T00:43:20;19.67;;;15.30;;
6392;SDS011;3229;42.674;23.282;2023-02-15T00:45:47;21.07;;;15.57;;
6392;SDS011;3229;42.674;23.282;2023-02-15T00:48:15;20.37;;;15.83;;
6392;SDS011;3229;42.674;23.282;2023-02-15T00:50:44;19.93;;;15.17;;
6392;SDS011;3229;42.674;23.282;2023-02-15T00:53:12;21.43;;;15.77;;
6392;SDS011;3229;42.674;23.282;2023-02-15T00:55:39;21.20;;;16.00;;
6392;SDS011;3229;42.674;23.282;2023-02-15T00:58:06;23.17;;;15.67;;
6392;SDS011;3229;42.674;23.282;2023-02-15T01:00:33;21.70;;;15.57;;
6392;SDS011;3229;42.674;23.282;2023-02-15T01:03:00;20.23;;;15.90;;
6392;SDS011;3229;42.674;23.282;2023-02-15T01:05:28;20.57;;;15.73;;
6392;SDS011;3229;42.674;23.282;2023-02-15T01:07:55;23.67;;;16.57;;
6392;SDS011;3229;42.674;23.282;2023-02-15T01:10:24;20.63;;;15.87;;
6392;SDS011;3229;42.674;23.282;2023-02-15T01:12:51;20.63;;;16.27;;
6392;SDS011;3229;42.674;23.282;2023-02-15T01:15:19;22.43;;;16.37;;
6392;SDS011;3229;42.674;23.282;2023-02-15T01:17:46;21.97;;;15.37;;
6392;SDS011;3229;42.674;23.282;2023-02-15T01:20:17;22.83;;;17.23;;
6392;SDS011;3229;42.674;23.282;2023-02-15T01:22:45;19.83;;;16.00;;
6392;SDS011;3229;42.674;23.282;2023-02-15T01:25:11;20.43;;;16.47;;
6392;SDS011;3229;42.674;23.282;2023-02-15T01:27:41;20.97;;;15.90;;
6392;SDS011;3229;42.674;23.282;2023-02-15T01:30:08;22.17;;;15.43;;
6392;SDS011;3229;42.674;23.282;2023-02-15T01:32:35;21.70;;;16.43;;
6392;SDS011;3229;42.674;23.282;2023-02-15T01:35:02;21.47;;;15.97;;
6392;SDS011;3229;42.674;23.282;2023-02-15T01:37:29;22.80;;;15.93;;
6392;SDS011;3229;42.674;23.282;2023-02-15T01:39:56;19.73;;;14.23;;
6392;SDS011;3229;42.674;23.282;2023-02-15T01:42:25;21.10;;;16.20;;
6392;SDS011;3229;42.674;23.282;2023-02-15T01:44:55;21.93;;;15.37;;
6392;SDS011;3229;42.674;23.282;2023-02-15T01:47:23;20.57;;;16.20;;
6392;SDS011;3229;42.674;23.282;2023-02-15T01:50:01;17.90;;;13.77;;
6392;SDS011;3229;42.674;23.282;2023-02-15T01:52:35;20.67;;;16.23;;
6392;SDS011;3229;42.674;23.282;2023-02-15T01:55:07;19.37;;;14.73;;
6392;SDS011;3229;42.674;23.282;2023-02-15T01:57:35;20.23;;;15.67;;
6392;SDS011;3229;42.674;23.282;2023-02-15T02:00:05;20.00;;;15.57;;
6392;SDS011;3229;42.674;23.282;2023-02-15T02:02:33;19.23;;;15.37;;
6392;SDS011;3229;42.674;23.282;2023-02-15T02:05:02;20.97;;;15.77;;
6392;SDS011;3229;42.674;23.282;2023-02-15T02:07:32;21.73;;;15.97;;
6392;SDS011;3229;42.674;23.282;2023-02-15T02:10:02;19.83;;;15.47;;
6392;SDS011;3229;42.674;23.282;2023-02-15T02:12:29;21.60;;;16.10;;
6392;SDS011;3229;42.674;23.282;2023-02-15T02:14:57;19.87;;;15.30;;
6392;SDS011;3229;42.674;23.282;2023-02-15T02:17:29;22.10;;;15.27;;
6392;SDS011;3229;42.674;23.282;2023-02-15T02:32:22;21.10;;;15.47;;
6392;SDS011;3229;42.674;23.282;2023-02-15T02:35:11;20.20;;;16.13;;
6392;SDS011;3229;42.674;23.282;2023-02-15T02:37:46;21.53;;;15.80;;
6392;SDS011;3229;42.674;23.282;2023-02-15T02:40:23;21.23;;;15.57;;
6392;SDS011;3229;42.674;23.282;2023-02-15T02:42:56;23.63;;;18.20;;
6392;SDS011;3229;42.674;23.282;2023-02-15T02:45:28;24.17;;;17.27;;
6392;SDS011;3229;42.674;23.282;2023-02-15T02:48:02;23.90;;;17.50;;
6392;SDS011;3229;42.674;23.282;2023-02-15T02:50:33;25.97;;;18.13;;
6392;SDS011;3229;42.674;23.282;2023-02-15T02:53:00;23.03;;;16.97;;
6392;SDS011;3229;42.674;23.282;2023-02-15T02:55:28;21.27;;;16.33;;
6392;SDS011;3229;42.674;23.282;2023-02-15T02:57:59;25.90;;;17.13;;
6392;SDS011;3229;42.674;23.282;2023-02-15T03:00:31;24.57;;;17.87;;
6392;SDS011;3229;42.674;23.282;2023-02-15T03:03:05;22.93;;;16.10;;
6392;SDS011;3229;42.674;23.282;2023-02-15T03:05:37;19.87;;;15.80;;
6392;SDS011;3229;42.674;23.282;2023-02-15T03:08:07;23.87;;;17.83;;
6392;SDS011;3229;42.674;23.282;2023-02-15T03:10:35;23.23;;;16.97;;
6392;SDS011;3229;42.674;23.282;2023-02-15T03:13:05;22.40;;;15.80;;
6392;SDS011;3229;42.674;23.282;2023-02-15T03:15:34;22.03;;;16.43;;
6392;SDS011;3229;42.674;23.282;2023-02-15T03:18:23;19.27;;;14.93;;
6392;SDS011;3229;42.674;23.282;2023-02-15T03:20:53;18.70;;;14.47;;
6392;SDS011;3229;42.674;23.282;2023-02-15T03:23:23;20.30;;;15.57;;
6392;SDS011;3229;42.674;23.282;2023-02-15T03:25:55;22.80;;;15.33;;
6392;SDS011;3229;42.674;23.282;2023-02-15T03:28:25;21.53;;;15.33;;
6392;SDS011;3229;42.674;23.282;2023-02-15T03:30:58;19.37;;;15.07;;
6392;SDS011;3229;42.674;23.282;2023-02-15T03:33:28;17.73;;;13.57;;
6392;SDS011;3229;42.674;23.282;2023-02-15T03:35:59;19.87;;;13.87;;
6392;SDS011;3229;42.674;23.282;2023-02-15T03:38:34;21.30;;;15.00;;
6392;SDS011;3229;42.674;23.282;2023-02-15T03:41:06;18.60;;;14.50;;
6392;SDS011;3229;42.674;23.282;2023-02-15T03:43:39;19.63;;;14.70;;
6392;SDS011;3229;42.674;23.282;2023-02-15T03:46:13;22.53;;;15.27;;
6392;SDS011;3229;42.674;23.282;2023-02-15T03:48:45;20.23;;;14.33;;
6392;SDS011;3229;42.674;23.282;2023-02-15T03:51:19;19.27;;;13.73;;
6392;SDS011;3229;42.674;23.282;2023-02-15T03:54:02;19.20;;;14.63;;
6392;SDS011;3229;42.674;23.282;2023-02-15T03:56:31;18.13;;;14.23;;
6392;SDS011;3229;42.674;23.282;2023-02-15T03:59:00;17.73;;;14.23;;
6392;SDS011;3229;42.674;23.282;2023-02-15T04:01:46;18.90;;;14.00;;
6392;SDS011;3229;42.674;23.282;2023-02-15T04:04:30;18.40;;;14.20;;
6392;SDS011;3229;42.674;23.282;2023-02-15T04:07:01;18.93;;;14.23;;
6392;SDS011;3229;42.674;23.282;2023-02-15T04:09:29;16.50;;;13.13;;
6392;SDS011;3229;42.674;23.282;2023-02-15T04:12:14;15.67;;;12.60;;
6392;SDS011;3229;42.674;23.282;2023-02-15T04:14:40;20.80;;;13.77;;
6392;SDS011;3229;42.674;23.282;2023-02-15T04:17:25;16.90;;;12.90;;
6392;SDS011;3229;42.674;23.282;2023-02-15T04:19:51;16.17;;;13.53;;
6392;SDS011;3229;42.674;23.282;2023-02-15T04:22:37;15.97;;;12.87;;
6392;SDS011;3229;42.674;23.282;2023-02-15T04:25:21;19.33;;;13.73;;
6392;SDS011;3229;42.674;23.282;2023-02-15T04:27:49;17.80;;;13.40;;
6392;SDS011;3229;42.674;23.282;2023-02-15T04:30:18;18.43;;;13.13;;
6392;SDS011;3229;42.674;23.282;2023-02-15T04:32:46;15.80;;;13.87;;
6392;SDS011;3229;42.674;23.282;2023-02-15T04:35:13;18.10;;;13.67;;
6392;SDS011;3229;42.674;23.282;2023-02-15T04:37:42;18.60;;;13.77;;
6392;SDS011;3229;42.674;23.282;2023-02-15T04:40:10;15.97;;;12.53;;
6392;SDS011;3229;42.674;23.282;2023-02-15T04:42:38;17.60;;;13.07;;
6392;SDS011;3229;42.674;23.282;2023-02-15T04:45:06;14.77;;;13.00;;
6392;SDS011;3229;42.674;23.282;2023-02-15T04:47:33;17.23;;;13.57;;
6392;SDS011;3229;42.674;23.282;2023-02-15T04:50:00;14.97;;;13.17;;
6392;SDS011;3229;42.674;23.282;2023-02-15T04:52:27;17.87;;;13.80;;
6392;SDS011;3229;42.674;23.282;2023-02-15T04:54:56;17.13;;;12.80;;
6392;SDS011;3229;42.674;23.282;2023-02-15T04:57:22;17.70;;;12.83;;
6392;SDS011;3229;42.674;23.282;2023-02-15T04:59:49;16.63;;;12.93;;
6392;SDS011;3229;42.674;23.282;2023-02-15T05:02:16;16.60;;;12.27;;
6392;SDS011;3229;42.674;23.282;2023-02-15T05:04:43;15.63;;;11.97;;
6392;SDS011;3229;42.674;23.282;2023-02-15T05:07:09;16.63;;;12.90;;
6392;SDS011;3229;42.674;23.282;2023-02-15T05:09:36;17.27;;;12.97;;
6392;SDS011;3229;42.674;23.282;2023-02-15T05:12:05;18.00;;;13.37;;
6392;SDS011;3229;42.674;23.282;2023-02-15T05:14:32;18.60;;;13.97;;
6392;SDS011;3229;42.674;23.282;2023-02-15T05:16:59;18.70;;;12.53;;
6392;SDS011;3229;42.674;23.282;2023-02-15T05:19:28;21.03;;;13.70;;
6392;SDS011;3229;42.674;23.282;2023-02-15T05:21:55;16.33;;;13.47;;
6392;SDS011;3229;42.674;23.282;2023-02-15T05:24:22;15.43;;;12.60;;
6392;SDS011;3229;42.674;23.282;2023-02-15T05:27:07;17.27;;;13.50;;
6392;SDS011;3229;42.674;23.282;2023-02-15T05:29:54;19.10;;;13.07;;
6392;SDS011;3229;42.674;23.282;2023-02-15T05:32:20;18.40;;;13.63;;
6392;SDS011;3229;42.674;23.282;2023-02-15T05:34:47;16.63;;;13.10;;
6392;SDS011;3229;42.674;23.282;2023-02-15T05:37:14;19.03;;;13.40;;
6392;SDS011;3229;42.674;23.282;2023-02-15T05:39:41;17.10;;;13.50;;
6392;SDS011;3229;42.674;23.282;2023-02-15T05:42:09;16.20;;;12.20;;
6392;SDS011;3229;42.674;23.282;2023-02-15T05:44:36;17.20;;;13.40;;
6392;SDS011;3229;42.674;23.282;2023-02-15T05:47:02;16.40;;;13.07;;
6392;SDS011;3229;42.674;23.282;2023-02-15T05:49:32;17.30;;;12.80;;
6392;SDS011;3229;42.674;23.282;2023-02-15T05:51:58;17.97;;;13.80;;
6392;SDS011;3229;42.674;23.282;2023-02-15T05:54:25;17.20;;;12.97;;
6392;SDS011;3229;42.674;23.282;2023-02-15T05:56:52;16.53;;;12.83;;
6392;SDS011;3229;42.674;23.282;2023-02-15T05:59:20;15.50;;;12.57;;
6392;SDS011;3229;42.674;23.282;2023-02-15T06:01:47;16.73;;;13.00;;
6392;SDS011;3229;42.674;23.282;2023-02-15T06:04:14;15.20;;;12.40;;
6392;SDS011;3229;42.674;23.282;2023-02-15T06:06:41;16.23;;;13.00;;
6392;SDS011;3229;42.674;23.282;2023-02-15T06:09:08;16.77;;;13.13;;
6392;SDS011;3229;42.674;23.282;2023-02-15T06:11:39;15.70;;;13.00;;
6392;SDS011;3229;42.674;23.282;2023-02-15T06:14:06;19.13;;;13.70;;
6392;SDS011;3229;42.674;23.282;2023-02-15T06:16:34;15.77;;;10.70;;
6392;SDS011;3229;42.674;23.282;2023-02-15T06:19:01;11.47;;;9.57;;
6392;SDS011;3229;42.674;23.282;2023-02-15T06:21:28;13.47;;;10.53;;
6392;SDS011;3229;42.674;23.282;2023-02-15T06:23:56;30.27;;;11.10;;
6392;SDS011;3229;42.674;23.282;2023-02-15T06:26:23;14.27;;;10.33;;
6392;SDS011;3229;42.674;23.282;2023-02-15T06:28:50;16.00;;;11.20;;
6392;SDS011;3229;42.674;23.282;2023-02-15T06:31:16;16.23;;;11.53;;
6392;SDS011;3229;42.674;23.282;2023-02-15T06:33:45;16.03;;;11.73;;
6392;SDS011;3229;42.674;23.282;2023-02-15T06:36:11;15.03;;;11.50;;
6392;SDS011;3229;42.674;23.282;2023-02-15T06:38:38;16.33;;;11.67;;
6392;SDS011;3229;42.674;23.282;2023-02-15T06:41:05;16.97;;;12.00;;
6392;SDS011;3229;42.674;23.282;2023-02-15T06:43:32;21.47;;;12.50;;
6392;SDS011;3229;42.674;23.282;2023-02-15T06:45:59;13.63;;;11.73;;
6392;SDS011;3229;42.674;23.282;2023-02-15T06:48:26;16.37;;;12.47;;
6392;SDS011;3229;42.674;23.282;2023-02-15T06:50:54;14.57;;;11.97;;
6392;SDS011;3229;42.674;23.282;2023-02-15T06:53:21;13.40;;;11.47;;
6392;SDS011;3229;42.674;23.282;2023-02-15T06:55:47;15.53;;;12.17;;
6392;SDS011;3229;42.674;23.282;2023-02-15T06:58:14;17.20;;;12.43;;
6392;SDS011;3229;42.674;23.282;2023-02-15T07:00:41;14.93;;;12.27;;
6392;SDS011;3229;42.674;23.282;2023-02-15T07:03:09;16.70;;;11.77;;
6392;SDS011;3229;42.674;23.282;2023-02-15T07:05:40;15.13;;;11.40;;
6392;SDS011;3229;42.674;23.282;2023-02-15T07:08:10;16.00;;;12.17;;
6392;SDS011;3229;42.674;23.282;2023-02-15T07:10:36;12.90;;;11.53;;
6392;SDS011;3229;42.674;23.282;2023-02-15T07:13:03;14.93;;;11.80;;
6392;SDS011;3229;42.674;23.282;2023-02-15T07:15:29;14.73;;;11.40;;
6392;SDS011;3229;42.674;23.282;2023-02-15T07:17:56;14.87;;;12.03;;
6392;SDS011;3229;42.674;23.282;2023-02-15T07:20:23;16.90;;;12.90;;
6392;SDS011;3229;42.674;23.282;2023-02-15T07:22:50;14.93;;;11.97;;
6392;SDS011;3229;42.674;23.282;2023-02-15T07:25:19;15.07;;;11.47;;
6392;SDS011;3229;42.674;23.282;2023-02-15T07:27:46;15.97;;;11.63;;
6392;SDS011;3229;42.674;23.282;2023-02-15T07:30:14;12.97;;;10.53;;
6392;SDS011;3229;42.674;23.282;2023-02-15T07:32:42;14.23;;;10.87;;
6392;SDS011;3229;42.674;23.282;2023-02-15T07:35:23;15.13;;;11.47;;
6392;SDS011;3229;42.674;23.282;2023-02-15T07:37:50;14.20;;;11.23;;
6392;SDS011;3229;42.674;23.282;2023-02-15T07:40:19;14.40;;;12.10;;
6392;SDS011;3229;42.674;23.282;2023-02-15T07:42:48;14.73;;;11.23;;
6392;SDS011;3229;42.674;23.282;2023-02-15T07:45:16;13.23;;;10.90;;
6392;SDS011;3229;42.674;23.282;2023-02-15T07:47:43;16.13;;;11.07;;
6392;SDS011;3229;42.674;23.282;2023-02-15T07:50:10;13.40;;;11.17;;
6392;SDS011;3229;42.674;23.282;2023-02-15T07:52:37;14.50;;;11.23;;
6392;SDS011;3229;42.674;23.282;2023-02-15T07:55:04;14.80;;;10.87;;
6392;SDS011;3229;42.674;23.282;2023-02-15T07:57:32;12.67;;;10.70;;
6392;SDS011;3229;42.674;23.282;2023-02-15T07:59:59;14.20;;;11.07;;
6392;SDS011;3229;42.674;23.282;2023-02-15T08:02:26;15.57;;;10.80;;
6392;SDS011;3229;42.674;23.282;2023-02-15T08:04:54;13.97;;;11.37;;
6392;SDS011;3229;42.674;23.282;2023-02-15T08:07:20;11.37;;;9.93;;
6392;SDS011;3229;42.674;23.282;2023-02-15T08:09:47;16.03;;;10.97;;
6392;SDS011;3229;42.674;23.282;2023-02-15T08:12:14;13.87;;;10.87;;
6392;SDS011;3229;42.674;23.282;2023-02-15T08:14:42;14.33;;;10.20;;
6392;SDS011;3229;42.674;23.282;2023-02-15T08:17:09;11.73;;;9.80;;
6392;SDS011;3229;42.674;23.282;2023-02-15T08:19:36;11.63;;;9.83;;
6392;SDS011;3229;42.674;23.282;2023-02-15T08:22:03;15.30;;;10.80;;
6392;SDS011;3229;42.674;23.282;2023-02-15T08:24:32;19.27;;;10.77;;
6392;SDS011;3229;42.674;23.282;2023-02-15T08:27:00;11.53;;;10.30;;
6392;SDS011;3229;42.674;23.282;2023-02-15T08:29:29;10.97;;;9.77;;
6392;SDS011;3229;42.674;23.282;2023-02-15T08:31:59;12.83;;;10.03;;
6392;SDS011;3229;42.674;23.282;2023-02-15T08:34:28;12.37;;;9.87;;
6392;SDS011;3229;42.674;23.282;2023-02-15T08:36:56;14.77;;;9.83;;
6392;SDS011;3229;42.674;23.282;2023-02-15T08:39:23;13.23;;;9.33;;
6392;SDS011;3229;42.674;23.282;2023-02-15T08:41:50;13.10;;;10.23;;
6392;SDS011;3229;42.674;23.282;2023-02-15T08:44:17;14.20;;;10.50;;
6392;SDS011;3229;42.674;23.282;2023-02-15T08:46:46;11.87;;;9.30;;
6392;SDS011;3229;42.674;23.282;2023-02-15T08:49:16;11.60;;;9.87;;
6392;SDS011;3229;42.674;23.282;2023-02-15T08:51:44;11.73;;;9.67;;
6392;SDS011;3229;42.674;23.282;2023-02-15T08:54:13;11.07;;;8.90;;
6392;SDS011;3229;42.674;23.282;2023-02-15T08:56:42;12.30;;;10.30;;
6392;SDS011;3229;42.674;23.282;2023-02-15T08:59:12;12.77;;;9.43;;
6392;SDS011;3229;42.674;23.282;2023-02-15T09:01:41;11.37;;;9.73;;
6392;SDS011;3229;42.674;23.282;2023-02-15T09:04:08;11.47;;;8.60;;
6392;SDS011;3229;42.674;23.282;2023-02-15T09:06:37;10.73;;;9.40;;
6392;SDS011;3229;42.674;23.282;2023-02-15T09:09:05;12.83;;;10.90;;
6392;SDS011;3229;42.674;23.282;2023-02-15T09:11:33;13.87;;;10.27;;
6392;SDS011;3229;42.674;23.282;2023-02-15T09:14:02;12.27;;;8.93;;
6392;SDS011;3229;42.674;23.282;2023-02-15T09:16:31;11.80;;;9.43;;
6392;SDS011;3229;42.674;23.282;2023-02-15T09:19:00;10.33;;;9.23;;
6392;SDS011;3229;42.674;23.282;2023-02-15T09:21:29;11.70;;;9.13;;
6392;SDS011;3229;42.674;23.282;2023-02-15T09:23:59;11.87;;;10.07;;
6392;SDS011;3229;42.674;23.282;2023-02-15T09:26:28;14.67;;;10.27;;
6392;SDS011;3229;42.674;23.282;2023-02-15T09:28:56;12.00;;;9.53;;
6392;SDS011;3229;42.674;23.282;2023-02-15T09:31:26;11.17;;;9.37;;
6392;SDS011;3229;42.674;23.282;2023-02-15T09:33:54;11.47;;;10.03;;
6392;SDS011;3229;42.674;23.282;2023-02-15T09:36:22;13.17;;;10.20;;
6392;SDS011;3229;42.674;23.282;2023-02-15T09:38:52;12.80;;;10.13;;
6392;SDS011;3229;42.674;23.282;2023-02-15T09:41:33;12.43;;;9.73;;
6392;SDS011;3229;42.674;23.282;2023-02-15T09:44:15;11.73;;;9.43;;
6392;SDS011;3229;42.674;23.282;2023-02-15T09:46:52;12.90;;;9.93;;
6392;SDS011;3229;42.674;23.282;2023-02-15T09:49:32;13.07;;;10.10;;
6392;SDS011;3229;42.674;23.282;2023-02-15T09:52:17;11.60;;;10.37;;
6392;SDS011;3229;42.674;23.282;2023-02-15T09:54:59;12.27;;;10.30;;
6392;SDS011;3229;42.674;23.282;2023-02-15T09:57:42;11.93;;;9.87;;
6392;SDS011;3229;42.674;23.282;2023-02-15T10:00:16;12.33;;;10.30;;
6392;SDS011;3229;42.674;23.282;2023-02-15T10:02:53;12.83;;;9.67;;
6392;SDS011;3229;42.674;23.282;2023-02-15T10:05:42;13.50;;;9.87;;
6392;SDS011;3229;42.674;23.282;2023-02-15T10:08:24;13.20;;;10.07;;
6392;SDS011;3229;42.674;23.282;2023-02-15T10:11:07;11.47;;;10.27;;
6392;SDS011;3229;42.674;23.282;2023-02-15T10:14:02;10.43;;;9.33;;
6392;SDS011;3229;42.674;23.282;2023-02-15T10:16:43;14.37;;;11.17;;
6392;SDS011;3229;42.674;23.282;2023-02-15T10:19:16;12.40;;;10.37;;
6392;SDS011;3229;42.674;23.282;2023-02-15T10:21:53;12.53;;;9.80;;
6392;SDS011;3229;42.674;23.282;2023-02-15T10:27:38;13.03;;;10.10;;
6392;SDS011;3229;42.674;23.282;2023-02-15T10:30:13;14.10;;;10.27;;
6392;SDS011;3229;42.674;23.282;2023-02-15T10:32:45;13.90;;;11.43;;
6392;SDS011;3229;42.674;23.282;2023-02-15T10:35:20;13.70;;;11.03;;
6392;SDS011;3229;42.674;23.282;2023-02-15T10:37:54;11.47;;;10.10;;
6392;SDS011;3229;42.674;23.282;2023-02-15T10:40:33;11.87;;;9.80;;
6392;SDS011;3229;42.674;23.282;2023-02-15T10:43:14;13.27;;;10.30;;
6392;SDS011;3229;42.674;23.282;2023-02-15T10:45:55;11.60;;;10.23;;
6392;SDS011;3229;42.674;23.282;2023-02-15T10:48:34;14.57;;;11.13;;
6392;SDS011;3229;42.674;23.282;2023-02-15T10:51:24;10.40;;;9.30;;
6392;SDS011;3229;42.674;23.282;2023-02-15T10:54:02;12.73;;;11.13;;
6392;SDS011;3229;42.674;23.282;2023-02-15T10:56:36;12.60;;;10.37;;
6392;SDS011;3229;42.674;23.282;2023-02-15T10:59:23;15.30;;;10.30;;
6392;SDS011;3229;42.674;23.282;2023-02-15T11:02:00;12.57;;;10.20;;
6392;SDS011;3229;42.674;23.282;2023-02-15T11:04:39;12.70;;;10.67;;
6392;SDS011;3229;42.674;23.282;2023-02-15T11:07:20;15.17;;;11.77;;
6392;SDS011;3229;42.674;23.282;2023-02-15T11:09:51;12.53;;;10.73;;
6392;SDS011;3229;42.674;23.282;2023-02-15T11:12:24;13.97;;;11.13;;
6392;SDS011;3229;42.674;23.282;2023-02-15T11:14:55;12.83;;;10.30;;
6392;SDS011;3229;42.674;23.282;2023-02-15T11:17:30;11.63;;;10.33;;
6392;SDS011;3229;42.674;23.282;2023-02-15T11:20:04;11.77;;;9.73;;
6392;SDS011;3229;42.674;23.282;2023-02-15T11:22:41;12.23;;;10.90;;
6392;SDS011;3229;42.674;23.282;2023-02-15T11:25:14;12.47;;;10.97;;
6392;SDS011;3229;42.674;23.282;2023-02-15T11:27:44;14.67;;;10.70;;
6392;SDS011;3229;42.674;23.282;2023-02-15T11:30:13;12.27;;;10.03;;
6392;SDS011;3229;42.674;23.282;2023-02-15T11:32:43;12.13;;;10.83;;
6392;SDS011;3229;42.674;23.282;2023-02-15T11:35:18;11.73;;;10.53;;
6392;SDS011;3229;42.674;23.282;2023-02-15T11:37:50;12.57;;;10.60;;
6392;SDS011;3229;42.674;23.282;2023-02-15T11:40:22;12.53;;;11.20;;
6392;SDS011;3229;42.674;23.282;2023-02-15T11:42:53;11.60;;;10.13;;
6392;SDS011;3229;42.674;23.282;2023-02-15T11:45:25;13.60;;;11.17;;
6392;SDS011;3229;42.674;23.282;2023-02-15T11:47:55;12.07;;;10.77;;
6392;SDS011;3229;42.674;23.282;2023-02-15T11:50:23;12.80;;;10.73;;
6392;SDS011;3229;42.674;23.282;2023-02-15T11:52:52;12.40;;;10.30;;
6392;SDS011;3229;42.674;23.282;2023-02-15T11:55:22;11.63;;;10.27;;
6392;SDS011;3229;42.674;23.282;2023-02-15T11:57:51;12.00;;;10.80;;
6392;SDS011;3229;42.674;23.282;2023-02-15T12:00:25;13.70;;;10.97;;
6392;SDS011;3229;42.674;23.282;2023-02-15T12:03:02;12.30;;;10.40;;
6392;SDS011;3229;42.674;23.282;2023-02-15T12:05:39;11.23;;;10.03;;
6392;SDS011;3229;42.674;23.282;2023-02-15T12:08:10;13.20;;;11.40;;
6392;SDS011;3229;42.674;23.282;2023-02-15T12:10:42;12.53;;;10.57;;
6392;SDS011;3229;42.674;23.282;2023-02-15T12:13:19;12.77;;;10.77;;
6392;SDS011;3229;42.674;23.282;2023-02-15T12:15:47;12.73;;;10.97;;
6392;SDS011;3229;42.674;23.282;2023-02-15T12:18:23;12.90;;;11.57;;
6392;SDS011;3229;42.674;23.282;2023-02-15T12:21:00;14.23;;;11.37;;
6392;SDS011;3229;42.674;23.282;2023-02-15T12:23:29;15.83;;;12.70;;
6392;SDS011;3229;42.674;23.282;2023-02-15T12:25:59;12.50;;;11.07;;
6392;SDS011;3229;42.674;23.282;2023-02-15T12:28:26;11.97;;;10.73;;
6392;SDS011;3229;42.674;23.282;2023-02-15T12:30:58;14.20;;;11.33;;
6392;SDS011;3229;42.674;23.282;2023-02-15T12:33:29;12.10;;;10.80;;
6392;SDS011;3229;42.674;23.282;2023-02-15T12:36:00;12.30;;;10.87;;
6392;SDS011;3229;42.674;23.282;2023-02-15T12:38:31;12.03;;;10.40;;
6392;SDS011;3229;42.674;23.282;2023-02-15T12:41:00;14.20;;;11.83;;
6392;SDS011;3229;42.674;23.282;2023-02-15T12:43:30;12.60;;;11.07;;
6392;SDS011;3229;42.674;23.282;2023-02-15T12:46:13;12.13;;;10.77;;
6392;SDS011;3229;42.674;23.282;2023-02-15T12:48:46;12.77;;;11.17;;
6392;SDS011;3229;42.674;23.282;2023-02-15T12:51:31;13.20;;;11.07;;
6392;SDS011;3229;42.674;23.282;2023-02-15T12:54:15;14.57;;;11.00;;
6392;SDS011;3229;42.674;23.282;2023-02-15T12:56:51;15.70;;;12.70;;
6392;SDS011;3229;42.674;23.282;2023-02-15T12:59:18;15.53;;;12.20;;
6392;SDS011;3229;42.674;23.282;2023-02-15T13:01:46;14.13;;;11.10;;
6392;SDS011;3229;42.674;23.282;2023-02-15T13:04:21;13.17;;;11.03;;
6392;SDS011;3229;42.674;23.282;2023-02-15T13:06:51;12.50;;;11.03;;
6392;SDS011;3229;42.674;23.282;2023-02-15T13:09:20;15.40;;;11.00;;
6392;SDS011;3229;42.674;23.282;2023-02-15T13:11:55;13.50;;;11.23;;
6392;SDS011;3229;42.674;23.282;2023-02-15T13:14:24;13.70;;;11.87;;
6392;SDS011;3229;42.674;23.282;2023-02-15T13:16:58;13.40;;;11.43;;
6392;SDS011;3229;42.674;23.282;2023-02-15T13:19:31;13.73;;;11.80;;
6392;SDS011;3229;42.674;23.282;2023-02-15T13:22:02;14.03;;;11.73;;
6392;SDS011;3229;42.674;23.282;2023-02-15T13:24:37;14.47;;;12.03;;
6392;SDS011;3229;42.674;23.282;2023-02-15T13:27:07;15.57;;;11.87;;
6392;SDS011;3229;42.674;23.282;2023-02-15T13:29:41;14.23;;;12.30;;
6392;SDS011;3229;42.674;23.282;2023-02-15T13:32:12;14.33;;;11.47;;
6392;SDS011;3229;42.674;23.282;2023-02-15T13:34:50;14.03;;;11.90;;
6392;SDS011;3229;42.674;23.282;2023-02-15T13:37:21;14.43;;;11.70;;
6392;SDS011;3229;42.674;23.282;2023-02-15T13:40:01;15.43;;;12.00;;
6392;SDS011;3229;42.674;23.282;2023-02-15T13:42:36;14.53;;;12.03;;
6392;SDS011;3229;42.674;23.282;2023-02-15T13:45:14;15.33;;;11.87;;
6392;SDS011;3229;42.674;23.282;2023-02-15T13:47:56;12.33;;;11.03;;
6392;SDS011;3229;42.674;23.282;2023-02-15T13:50:34;13.53;;;11.47;;
6392;SDS011;3229;42.674;23.282;2023-02-15T13:53:17;14.27;;;12.43;;
6392;SDS011;3229;42.674;23.282;2023-02-15T13:55:56;13.37;;;11.43;;
6392;SDS011;3229;42.674;23.282;2023-02-15T13:58:33;14.60;;;11.87;;
6392;SDS011;3229;42.674;23.282;2023-02-15T14:01:13;13.47;;;11.73;;
6392;SDS011;3229;42.674;23.282;2023-02-15T14:06:52;14.30;;;12.00;;
6392;SDS011;3229;42.674;23.282;2023-02-15T14:09:39;13.20;;;11.20;;
6392;SDS011;3229;42.674;23.282;2023-02-15T14:12:26;14.30;;;11.67;;
6392;SDS011;3229;42.674;23.282;2023-02-15T14:15:08;13.60;;;11.67;;
6392;SDS011;3229;42.674;23.282;2023-02-15T14:17:47;13.80;;;12.03;;
6392;SDS011;3229;42.674;23.282;2023-02-15T14:20:24;15.70;;;11.90;;
6392;SDS011;3229;42.674;23.282;2023-02-15T14:23:10;15.97;;;11.13;;
6392;SDS011;3229;42.674;23.282;2023-02-15T14:25:55;13.77;;;12.23;;
6392;SDS011;3229;42.674;23.282;2023-02-15T14:28:27;14.70;;;11.40;;
6392;SDS011;3229;42.674;23.282;2023-02-15T14:31:00;14.07;;;12.10;;
6392;SDS011;3229;42.674;23.282;2023-02-15T14:33:32;14.43;;;11.93;;
6392;SDS011;3229;42.674;23.282;2023-02-15T14:36:04;15.63;;;12.30;;
6392;SDS011;3229;42.674;23.282;2023-02-15T14:38:39;13.90;;;12.20;;
6392;SDS011;3229;42.674;23.282;2023-02-15T14:41:18;14.37;;;12.10;;
6392;SDS011;3229;42.674;23.282;2023-02-15T14:43:52;14.60;;;11.57;;
6392;SDS011;3229;42.674;23.282;2023-02-15T14:46:29;13.63;;;11.83;;
6392;SDS011;3229;42.674;23.282;2023-02-15T14:49:03;19.07;;;13.53;;
6392;SDS011;3229;42.674;23.282;2023-02-15T14:57:29;15.53;;;11.57;;
6392;SDS011;3229;42.674;23.282;2023-02-15T14:59:59;15.40;;;12.23;;
6392;SDS011;3229;42.674;23.282;2023-02-15T15:02:39;15.13;;;12.87;;
6392;SDS011;3229;42.674;23.282;2023-02-15T15:05:13;14.60;;;12.00;;
6392;SDS011;3229;42.674;23.282;2023-02-15T15:07:45;15.30;;;12.33;;
6392;SDS011;3229;42.674;23.282;2023-02-15T15:10:35;13.00;;;11.60;;
6392;SDS011;3229;42.674;23.282;2023-02-15T15:18:50;13.67;;;12.10;;
6392;SDS011;3229;42.674;23.282;2023-02-15T15:33:36;15.83;;;12.63;;
6392;SDS011;3229;42.674;23.282;2023-02-15T15:42:49;13.50;;;12.07;;
6392;SDS011;3229;42.674;23.282;2023-02-15T15:48:32;16.80;;;12.80;;
6392;SDS011;3229;42.674;23.282;2023-02-15T15:51:04;16.00;;;12.47;;
6392;SDS011;3229;42.674;23.282;2023-02-15T15:53:38;14.50;;;11.87;;